Terminal Aerodrome Forecast
Issued by NWS

Home | Current Version | Previous Version | Text Only | Print | Product List | Glossary On
Versions: 1 2 3 4 5 6 7 8 9 10 11 12 13 14 15 16 17 18 19 20 21 22 23 24 25 26 27 28 29 30 31 32 33 34 35 36 37 38 39 40 41 42
000
FTPQ31 PGUM 240500 AAK
TAFGSN
TAF AMD
PGSN 240500Z 2405/2424 09011KT P6SM VCTS SCT015CB SCT030 BKN130
      TEMPO 2407/2411 VRB12G22KT 3SM +SHRA OVC015
     FM241300 VRB07KT P6SM VCSH SCT015 SCT030 BKN120=

USA.gov is the U.S. government's official web portal to all federal, state and local government web resources and services.